Time;durP1;ratioP1;P1;durP2;ratioP2;P2;SDS_P1;SDS_P2;PMS_P1;PMS_P2;Temp;Humidity;BMP_temperature;BMP_pressure;BME280_temperature;BME280_humidity;BME280_pressure;Samples;Min_cycle;Max_cycle;Signal;HPM_P1;HPM_P2
2021/05/16 00:01:09;;;;;;;34.73;6.77;;;9.70;99.90;;;;;;5092604;28;20236;-81
2021/05/16 00:03:36;;;;;;;30.27;4.97;;;9.70;99.90;;;;;;5092365;28;20737;-80
2021/05/16 00:06:03;;;;;;;27.50;4.80;;;9.70;99.90;;;;;;5092737;28;20279;-80
2021/05/16 00:08:29;;;;;;;34.03;4.53;;;9.70;99.90;;;;;;5092184;28;20218;-80
2021/05/16 00:10:56;;;;;;;42.77;5.23;;;9.60;99.90;;;;;;5092026;28;20653;-81
2021/05/16 00:13:22;;;;;;;31.17;4.73;;;9.70;99.90;;;;;;5092814;28;20206;-84
2021/05/16 00:15:50;;;;;;;29.73;4.50;;;9.60;99.90;;;;;;5092399;28;20225;-81
2021/05/16 00:18:16;;;;;;;28.57;4.93;;;9.60;99.90;;;;;;5092566;28;20627;-81
2021/05/16 00:20:43;;;;;;;22.57;4.03;;;9.60;99.90;;;;;;5092778;28;20194;-86
2021/05/16 00:23:10;;;;;;;38.73;5.03;;;9.50;99.90;;;;;;5092430;28;20659;-80
2021/05/16 00:25:36;;;;;;;23.53;4.47;;;9.50;99.90;;;;;;5093025;28;20291;-81
2021/05/16 00:28:04;;;;;;;31.60;4.20;;;9.50;99.90;;;;;;5092530;28;20727;-80
2021/05/16 00:30:30;;;;;;;37.13;5.43;;;9.50;99.90;;;;;;5093231;28;20225;-81
2021/05/16 00:32:59;;;;;;;29.47;4.33;;;9.60;99.90;;;;;;5092891;28;20228;-84
2021/05/16 00:35:28;;;;;;;26.03;4.27;;;9.50;99.90;;;;;;5092798;28;20201;-82
2021/05/16 00:37:55;;;;;;;25.47;3.77;;;9.50;99.90;;;;;;5094433;28;20221;-83
2021/05/16 00:40:21;;;;;;;26.73;4.43;;;9.50;99.90;;;;;;5096254;28;20205;-81
2021/05/16 00:42:48;;;;;;;28.60;3.83;;;9.50;99.90;;;;;;5096316;28;20201;-81
2021/05/16 00:45:18;;;;;;;27.17;4.33;;;9.50;99.90;;;;;;5096188;28;20191;-80
2021/05/16 00:47:49;;;;;;;27.30;3.77;;;9.50;99.90;;;;;;5096428;28;20285;-82
2021/05/16 00:50:17;;;;;;;26.43;3.70;;;9.50;99.90;;;;;;5095747;28;20687;-82
2021/05/16 00:52:44;;;;;;;29.40;4.10;;;9.50;99.90;;;;;;5096002;28;20195;-80
2021/05/16 00:55:12;;;;;;;26.17;4.17;;;9.50;99.90;;;;;;5095893;28;20204;-80
2021/05/16 00:57:39;;;;;;;31.87;4.93;;;9.40;99.90;;;;;;5096330;28;20608;-82
2021/05/16 01:00:08;;;;;;;33.67;4.20;;;9.50;99.90;;;;;;5095927;28;20608;-80
2021/05/16 01:02:34;;;;;;;28.33;4.60;;;9.50;99.90;;;;;;5096066;28;20203;-81
2021/05/16 01:05:01;;;;;;;19.17;3.67;;;9.60;99.90;;;;;;5095708;28;20199;-84
2021/05/16 01:07:28;;;;;;;25.13;3.53;;;9.50;99.90;;;;;;5096168;28;20224;-80
2021/05/16 01:09:55;;;;;;;28.57;4.30;;;9.50;99.90;;;;;;5095714;28;20279;-82
2021/05/16 01:12:29;;;;;;;29.53;4.50;;;9.60;99.90;;;;;;5095870;28;20728;-80
2021/05/16 01:14:58;;;;;;;27.00;3.73;;;9.60;99.90;;;;;;5095791;28;20197;-80
2021/05/16 01:17:25;;;;;;;34.63;4.30;;;9.50;99.90;;;;;;5095465;28;20229;-83
2021/05/16 01:19:52;;;;;;;39.63;5.63;;;9.50;99.90;;;;;;5095232;28;20235;-81
2021/05/16 01:22:19;;;;;;;19.50;3.50;;;9.50;99.90;;;;;;5095510;28;20568;-81
2021/05/16 01:24:48;;;;;;;30.53;4.00;;;9.40;99.90;;;;;;5095371;28;20266;-81
2021/05/16 01:27:15;;;;;;;29.13;4.80;;;9.40;99.90;;;;;;5095805;28;20620;-80
2021/05/16 01:29:42;;;;;;;34.33;4.70;;;9.40;99.90;;;;;;5095109;28;20301;-80
2021/05/16 01:32:11;;;;;;;30.83;4.43;;;9.30;99.90;;;;;;5095319;28;20251;-81
2021/05/16 01:34:40;;;;;;;21.17;4.07;;;9.40;99.90;;;;;;5095027;28;20193;-81
2021/05/16 01:37:07;;;;;;;25.67;4.20;;;9.40;99.90;;;;;;5075092;28;20223;-84
2021/05/16 01:39:34;;;;;;;33.13;3.87;;;9.40;99.90;;;;;;5075072;28;20195;-84
2021/05/16 01:42:01;;;;;;;20.80;3.87;;;9.40;99.90;;;;;;5094549;28;20193;-81
2021/05/16 01:44:27;;;;;;;37.23;4.13;;;9.30;99.90;;;;;;5094503;28;20559;-80
2021/05/16 01:46:54;;;;;;;31.27;4.00;;;9.30;99.90;;;;;;5094873;28;20654;-83
2021/05/16 01:49:20;;;;;;;25.47;4.10;;;9.30;99.90;;;;;;5094874;28;20653;-82
2021/05/16 01:51:47;;;;;;;22.97;3.70;;;9.20;99.90;;;;;;5095204;28;20281;-82
2021/05/16 01:54:14;;;;;;;30.47;3.80;;;9.20;99.90;;;;;;5094981;28;20284;-81
2021/05/16 01:56:41;;;;;;;26.43;4.73;;;9.20;99.90;;;;;;5094554;28;20258;-81
2021/05/16 01:59:08;;;;;;;28.83;4.20;;;9.20;99.90;;;;;;5094724;28;20197;-81
2021/05/16 02:01:35;;;;;;;30.13;3.93;;;9.20;99.90;;;;;;5094855;28;20199;-84
2021/05/16 02:04:02;;;;;;;23.30;3.90;;;9.20;99.90;;;;;;5094907;28;20202;-80
2021/05/16 02:06:29;;;;;;;29.53;3.50;;;9.30;99.90;;;;;;5094408;28;20202;-82
2021/05/16 02:08:56;;;;;;;24.43;3.90;;;9.20;99.90;;;;;;5094538;28;20205;-82
2021/05/16 02:11:23;;;;;;;30.53;4.17;;;9.10;99.90;;;;;;5094233;28;20199;-82
2021/05/16 02:13:50;;;;;;;18.77;3.50;;;9.10;99.90;;;;;;5094296;28;20206;-81
2021/05/16 02:16:18;;;;;;;18.50;3.67;;;9.10;99.90;;;;;;5094483;28;20257;-81
2021/05/16 02:18:44;;;;;;;26.30;3.87;;;9.10;99.90;;;;;;5094357;28;20202;-84
2021/05/16 02:21:11;;;;;;;22.60;3.67;;;9.10;99.90;;;;;;5094134;28;20296;-81
2021/05/16 02:23:39;;;;;;;33.27;4.77;;;9.10;99.90;;;;;;5094072;28;20197;-82
2021/05/16 02:26:06;;;;;;;28.93;3.83;;;9.10;99.90;;;;;;5093924;28;20422;-81
2021/05/16 02:28:33;;;;;;;24.47;4.43;;;9.00;99.90;;;;;;5094458;28;20215;-83
2021/05/16 02:31:09;;;;;;;22.70;3.80;;;9.00;99.90;;;;;;5094291;28;20218;-84
2021/05/16 02:33:35;;;;;;;25.90;4.00;;;9.00;99.90;;;;;;5094319;28;20284;-82
2021/05/16 02:36:01;;;;;;;27.27;3.47;;;9.00;99.90;;;;;;5094105;28;20271;-82
2021/05/16 02:38:28;;;;;;;26.70;3.33;;;9.00;99.90;;;;;;5093912;28;20286;-81
2021/05/16 02:40:55;;;;;;;16.63;3.50;;;9.00;99.90;;;;;;5094165;28;20649;-81
2021/05/16 02:43:22;;;;;;;27.33;4.10;;;9.00;99.90;;;;;;5094039;28;20191;-85
2021/05/16 02:45:48;;;;;;;22.93;3.70;;;9.00;99.90;;;;;;5093908;28;20243;-85
2021/05/16 02:48:15;;;;;;;28.73;4.50;;;9.00;99.90;;;;;;5093703;28;20249;-82
2021/05/16 02:50:42;;;;;;;24.40;4.10;;;9.00;99.90;;;;;;5093934;28;20200;-81
2021/05/16 02:53:08;;;;;;;21.03;3.97;;;9.00;99.90;;;;;;5094104;28;20201;-82
2021/05/16 02:55:34;;;;;;;24.47;3.90;;;8.90;99.90;;;;;;5094885;28;20231;-81
2021/05/16 02:58:01;;;;;;;19.73;3.63;;;8.80;99.90;;;;;;5093480;28;20732;-81
2021/05/16 03:00:27;;;;;;;27.40;4.80;;;8.80;99.90;;;;;;5093286;28;20287;-81
2021/05/16 03:02:54;;;;;;;22.63;4.10;;;8.90;99.90;;;;;;5093631;28;20221;-81
2021/05/16 03:05:21;;;;;;;24.27;4.13;;;8.80;99.90;;;;;;5093849;28;20284;-83
2021/05/16 03:07:48;;;;;;;20.03;3.73;;;8.80;99.90;;;;;;5093263;28;20211;-81
2021/05/16 03:10:14;;;;;;;35.50;4.53;;;8.90;99.90;;;;;;5093448;28;20296;-80
2021/05/16 03:12:41;;;;;;;25.73;4.27;;;8.90;99.90;;;;;;5093434;28;20213;-80
2021/05/16 03:15:09;;;;;;;22.07;4.30;;;8.90;99.90;;;;;;5093824;28;20225;-80
2021/05/16 03:17:35;;;;;;;36.13;4.70;;;8.90;99.90;;;;;;5093511;28;20685;-85
2021/05/16 03:20:01;;;;;;;31.10;4.30;;;8.90;99.90;;;;;;5093347;28;20280;-81
2021/05/16 03:22:28;;;;;;;19.17;4.10;;;8.90;99.90;;;;;;5093275;28;20201;-84
2021/05/16 03:24:55;;;;;;;19.23;4.13;;;8.90;99.90;;;;;;5093648;28;20203;-81
2021/05/16 03:27:21;;;;;;;25.20;4.20;;;8.80;99.90;;;;;;5093155;28;20200;-81
2021/05/16 03:29:48;;;;;;;24.47;4.27;;;8.90;99.90;;;;;;5093023;28;20279;-84
2021/05/16 03:32:14;;;;;;;32.80;5.23;;;9.00;99.90;;;;;;5092765;28;20265;-83
2021/05/16 03:34:40;;;;;;;22.20;4.00;;;8.90;99.90;;;;;;5092782;28;20330;-80
2021/05/16 03:37:07;;;;;;;29.17;4.20;;;8.90;99.90;;;;;;5092872;28;20654;-82
2021/05/16 03:39:34;;;;;;;34.13;5.30;;;8.90;99.90;;;;;;5093341;28;20308;-82
2021/05/16 03:42:00;;;;;;;26.90;4.57;;;8.90;99.90;;;;;;5093678;28;20208;-84
2021/05/16 03:44:27;;;;;;;22.07;4.27;;;8.90;99.90;;;;;;5093533;28;20547;-82
2021/05/16 03:46:54;;;;;;;23.47;4.07;;;9.00;99.90;;;;;;5093428;28;20280;-82
2021/05/16 03:49:20;;;;;;;15.13;4.30;;;9.00;99.90;;;;;;5093315;28;20217;-81
2021/05/16 03:51:46;;;;;;;22.23;4.70;;;8.90;99.90;;;;;;5092810;28;20342;-84
2021/05/16 03:54:15;;;;;;;23.87;4.83;;;8.80;99.90;;;;;;5093379;28;20291;-81
2021/05/16 03:56:42;;;;;;;18.03;4.20;;;8.80;99.90;;;;;;5092715;28;20316;-81
2021/05/16 03:59:09;;;;;;;21.70;4.60;;;8.90;99.90;;;;;;5092896;28;20200;-82
2021/05/16 04:01:35;;;;;;;20.77;4.40;;;8.90;99.90;;;;;;5093192;28;20195;-84
2021/05/16 04:04:02;;;;;;;23.43;4.70;;;8.90;99.90;;;;;;5093033;28;20287;-81
2021/05/16 04:06:28;;;;;;;24.00;4.57;;;9.00;99.90;;;;;;5092955;28;20600;-83
2021/05/16 04:08:55;;;;;;;17.23;4.10;;;9.00;99.90;;;;;;5093095;28;20682;-86
2021/05/16 04:11:21;;;;;;;30.43;4.90;;;9.00;99.90;;;;;;5092945;28;20258;-84
2021/05/16 04:13:48;;;;;;;27.10;5.00;;;9.00;99.90;;;;;;5096425;28;20209;-85
2021/05/16 04:16:15;;;;;;;19.60;4.13;;;9.00;99.90;;;;;;5096818;28;20231;-84
2021/05/16 04:18:41;;;;;;;27.53;4.53;;;9.10;99.90;;;;;;5096250;28;20677;-81
2021/05/16 04:21:08;;;;;;;22.33;3.97;;;9.10;99.90;;;;;;5096946;28;20304;-81
2021/05/16 04:23:35;;;;;;;21.40;4.23;;;9.20;99.90;;;;;;5096661;28;20285;-87
2021/05/16 04:26:01;;;;;;;15.00;4.10;;;9.20;99.90;;;;;;5097020;28;20195;-81
2021/05/16 04:28:27;;;;;;;15.97;4.57;;;9.20;99.90;;;;;;5096047;28;20352;-81
2021/05/16 04:30:55;;;;;;;19.57;4.33;;;9.30;99.90;;;;;;5096873;28;20212;-81
2021/05/16 04:33:21;;;;;;;19.47;4.30;;;9.70;99.90;;;;;;5096284;28;20221;-81
2021/05/16 04:35:48;;;;;;;15.20;4.37;;;10.20;99.90;;;;;;5096508;28;20191;-83
2021/05/16 04:38:14;;;;;;;18.60;4.17;;;10.60;99.90;;;;;;5095938;28;20202;-86
2021/05/16 04:40:41;;;;;;;13.30;3.20;;;11.00;99.90;;;;;;5096439;28;20239;-85
2021/05/16 04:43:08;;;;;;;16.97;4.00;;;11.40;99.90;;;;;;5096108;28;20292;-83
2021/05/16 04:45:35;;;;;;;13.70;3.60;;;11.80;99.90;;;;;;5096140;28;20629;-82
2021/05/16 04:48:02;;;;;;;13.07;3.20;;;12.00;99.90;;;;;;5096071;28;20541;-85
2021/05/16 04:50:29;;;;;;;10.97;2.80;;;12.40;99.90;;;;;;5096026;28;20294;-80
2021/05/16 04:52:55;;;;;;;12.13;2.70;;;12.60;99.90;;;;;;5096023;28;20562;-80
2021/05/16 04:55:21;;;;;;;11.47;2.83;;;12.80;99.90;;;;;;5096069;28;20207;-81
2021/05/16 04:57:48;;;;;;;13.30;3.03;;;13.10;99.90;;;;;;5095939;28;20697;-81
2021/05/16 05:00:16;;;;;;;9.63;2.80;;;13.20;99.90;;;;;;5095834;28;20211;-83
2021/05/16 05:02:44;;;;;;;11.90;2.80;;;13.20;99.90;;;;;;5095644;28;20199;-81
2021/05/16 05:05:12;;;;;;;11.37;2.80;;;12.90;99.90;;;;;;5095928;28;20679;-81
2021/05/16 05:07:39;;;;;;;14.70;3.20;;;12.70;99.90;;;;;;5095975;28;20242;-81
2021/05/16 05:10:07;;;;;;;15.20;3.40;;;12.50;99.90;;;;;;5095360;28;20222;-81
2021/05/16 05:12:33;;;;;;;12.47;3.47;;;12.30;99.90;;;;;;5095412;28;20652;-80
2021/05/16 05:15:00;;;;;;;12.10;3.30;;;12.30;99.90;;;;;;5096411;28;20224;-80
2021/05/16 05:17:26;;;;;;;12.83;2.80;;;12.50;99.90;;;;;;5096770;28;20223;-84
2021/05/16 05:19:52;;;;;;;12.57;2.50;;;12.70;99.90;;;;;;5096093;28;20224;-80
2021/05/16 05:22:20;;;;;;;14.10;2.83;;;12.90;99.90;;;;;;5096077;28;20295;-85
2021/05/16 05:24:46;;;;;;;14.20;2.57;;;13.10;99.90;;;;;;5096797;28;20262;-81
2021/05/16 05:27:13;;;;;;;14.47;2.93;;;13.00;99.90;;;;;;5095969;28;20289;-82
2021/05/16 05:29:39;;;;;;;15.83;3.30;;;13.00;99.90;;;;;;5096205;28;20286;-81
2021/05/16 05:32:06;;;;;;;9.50;2.60;;;13.00;99.90;;;;;;5096247;28;20229;-83
2021/05/16 05:34:32;;;;;;;12.37;3.07;;;13.20;99.90;;;;;;5096019;28;20696;-81
2021/05/16 05:36:59;;;;;;;11.93;2.80;;;13.50;99.90;;;;;;5098056;28;20336;-81
2021/05/16 05:39:26;;;;;;;12.97;2.77;;;13.90;99.90;;;;;;5097708;28;20195;-88
2021/05/16 05:41:52;;;;;;;11.73;2.77;;;14.60;99.90;;;;;;5097030;28;20279;-84
2021/05/16 05:44:19;;;;;;;10.67;2.63;;;15.00;99.90;;;;;;5097148;28;20219;-82
2021/05/16 05:46:45;;;;;;;9.80;2.47;;;15.20;99.90;;;;;;5097317;28;20221;-80
2021/05/16 05:49:11;;;;;;;15.97;3.47;;;15.00;99.90;;;;;;5096599;28;20263;-81
2021/05/16 05:51:38;;;;;;;14.33;2.80;;;15.40;99.90;;;;;;5096460;28;20213;-80
2021/05/16 05:54:04;;;;;;;18.03;3.67;;;15.50;99.90;;;;;;5096116;28;20293;-81
2021/05/16 05:56:32;;;;;;;14.00;3.30;;;15.70;99.90;;;;;;5096499;28;20771;-87
2021/05/16 05:58:58;;;;;;;13.33;2.93;;;15.80;99.90;;;;;;5096273;28;20362;-79
2021/05/16 06:01:24;;;;;;;19.80;3.53;;;16.00;99.90;;;;;;5096274;28;20222;-79
2021/05/16 06:03:51;;;;;;;15.70;3.00;;;15.60;99.90;;;;;;5095538;28;20226;-80
2021/05/16 06:06:17;;;;;;;15.67;3.40;;;15.80;99.90;;;;;;5095825;28;20684;-83
2021/05/16 06:08:44;;;;;;;17.40;4.10;;;16.30;99.90;;;;;;5095512;28;20679;-84
2021/05/16 06:11:10;;;;;;;15.33;3.73;;;16.20;99.90;;;;;;5095766;28;20286;-81
2021/05/16 06:13:37;;;;;;;10.20;2.90;;;15.90;99.90;;;;;;5094962;28;20257;-80
2021/05/16 06:16:04;;;;;;;16.23;3.67;;;15.60;99.90;;;;;;5094546;28;20199;-82
2021/05/16 06:18:31;;;;;;;12.77;3.20;;;15.60;99.90;;;;;;5094602;28;20203;-80
2021/05/16 06:20:57;;;;;;;15.60;3.10;;;15.50;99.90;;;;;;5094538;28;20289;-82
2021/05/16 06:23:34;;;;;;;15.63;3.63;;;15.00;99.90;;;;;;5094087;28;20198;-83
2021/05/16 06:26:00;;;;;;;19.40;4.00;;;15.20;99.90;;;;;;5095143;28;20281;-81
2021/05/16 06:28:26;;;;;;;10.73;2.57;;;15.00;99.90;;;;;;5095442;28;20244;-82
2021/05/16 06:30:54;;;;;;;12.13;2.67;;;15.20;99.90;;;;;;5094626;28;20191;-83
2021/05/16 06:33:20;;;;;;;16.17;3.43;;;15.30;99.90;;;;;;5094092;28;20281;-81
2021/05/16 06:35:46;;;;;;;17.67;3.03;;;15.30;99.90;;;;;;5093050;28;20290;-81
2021/05/16 06:38:13;;;;;;;17.27;3.50;;;15.30;99.90;;;;;;5094159;28;20675;-80
2021/05/16 06:40:39;;;;;;;17.83;3.13;;;15.30;99.90;;;;;;5093541;28;20195;-81
2021/05/16 06:43:06;;;;;;;16.47;3.20;;;15.20;99.90;;;;;;5093728;28;20225;-81
2021/05/16 06:45:32;;;;;;;17.20;3.20;;;15.40;99.90;;;;;;5093696;28;20195;-80
2021/05/16 06:48:00;;;;;;;14.87;3.40;;;15.50;99.90;;;;;;5094088;28;20207;-81
2021/05/16 06:50:26;;;;;;;12.83;3.03;;;16.20;99.90;;;;;;5093798;28;20206;-81
2021/05/16 06:52:53;;;;;;;11.40;2.87;;;16.70;99.90;;;;;;5093786;28;20286;-83
2021/05/16 06:55:19;;;;;;;16.33;3.13;;;17.70;99.90;;;;;;5093871;28;20652;-80
2021/05/16 06:57:45;;;;;;;13.40;2.90;;;19.00;99.90;;;;;;5093863;28;20226;-82
2021/05/16 07:00:13;;;;;;;11.93;3.30;;;19.10;99.90;;;;;;5093551;28;20286;-80
2021/05/16 07:02:39;;;;;;;14.33;3.20;;;18.60;99.90;;;;;;5093668;28;20655;-86
2021/05/16 07:05:08;;;;;;;13.97;3.00;;;17.90;99.90;;;;;;5093623;28;20217;-81
2021/05/16 07:07:34;;;;;;;12.70;2.83;;;17.40;99.90;;;;;;5093283;28;20256;-80
2021/05/16 07:10:01;;;;;;;13.00;3.50;;;17.40;99.90;;;;;;5093519;28;20199;-80
2021/05/16 07:12:27;;;;;;;10.40;3.30;;;17.90;99.90;;;;;;5092757;28;20226;-80
2021/05/16 07:14:54;;;;;;;14.73;3.17;;;18.40;99.90;;;;;;5087577;28;21253;-85
2021/05/16 07:17:23;;;;;;;14.13;3.63;;;19.50;99.90;;;;;;5092908;28;20223;-81
2021/05/16 07:19:49;;;;;;;14.17;3.33;;;19.10;99.90;;;;;;5088805;28;20248;-79
2021/05/16 07:22:23;;;;;;;16.37;3.50;;;19.20;99.90;;;;;;5092243;28;20198;-85
2021/05/16 07:24:50;;;;;;;11.30;2.90;;;19.00;99.90;;;;;;5093137;28;20226;-79
2021/05/16 07:27:17;;;;;;;10.50;2.77;;;19.50;99.90;;;;;;5093858;28;20223;-81
2021/05/16 07:29:43;;;;;;;12.63;3.07;;;20.10;99.90;;;;;;5093070;28;20207;-85
2021/05/16 07:32:10;;;;;;;19.47;4.10;;;20.80;99.90;;;;;;5092689;28;20199;-81
2021/05/16 07:34:36;;;;;;;12.13;3.10;;;21.80;99.90;;;;;;5092809;28;20199;-81
2021/05/16 07:37:03;;;;;;;11.55;3.10;;;22.40;99.90;;;;;;5092875;28;20261;-84
2021/05/16 07:39:30;;;;;;;10.10;3.23;;;21.80;99.90;;;;;;5092564;28;20268;-82
2021/05/16 07:41:56;;;;;;;10.80;3.13;;;21.60;99.90;;;;;;5092766;28;20654;-82
2021/05/16 07:44:23;;;;;;;12.83;2.80;;;21.10;99.90;;;;;;5091680;28;20234;-84
2021/05/16 07:46:50;;;;;;;13.20;3.20;;;20.70;99.90;;;;;;5074738;28;20668;-82
2021/05/16 07:49:16;;;;;;;13.60;3.10;;;20.30;99.90;;;;;;5096400;28;20720;-79
2021/05/16 07:51:42;;;;;;;12.63;3.10;;;20.00;99.90;;;;;;5096239;28;20565;-79
2021/05/16 07:54:09;;;;;;;12.97;3.47;;;19.80;99.90;;;;;;5093538;28;20285;-81
2021/05/16 07:56:36;;;;;;;15.40;3.53;;;18.90;99.90;;;;;;5096085;28;20695;-79
2021/05/16 07:59:03;;;;;;;13.70;3.07;;;18.80;99.90;;;;;;5096517;28;20219;-79
2021/05/16 08:01:30;;;;;;;12.83;2.80;;;18.50;99.90;;;;;;5096407;28;20205;-80
2021/05/16 08:03:56;;;;;;;10.80;3.00;;;19.00;99.90;;;;;;5095723;28;20227;-80
2021/05/16 08:06:22;;;;;;;12.63;3.70;;;20.60;99.90;;;;;;5096248;28;20195;-80
2021/05/16 08:08:49;;;;;;;13.47;2.90;;;22.70;99.90;;;;;;5095768;28;20323;-83
2021/05/16 08:11:15;;;;;;;10.90;3.10;;;23.50;99.90;;;;;;5095642;28;20317;-80
2021/05/16 08:13:43;;;;;;;13.50;2.85;;;23.10;99.90;;;;;;5095860;28;20211;-84
2021/05/16 08:16:15;;;;;;;12.38;3.05;;;23.50;99.90;;;;;;5095991;28;20909;-83
2021/05/16 08:18:44;;;;;;;13.57;3.20;;;24.40;99.90;;;;;;5095806;28;20194;-80
2021/05/16 08:21:11;;;;;;;8.63;2.60;;;25.80;99.90;;;;;;5096163;28;20203;-83
2021/05/16 08:23:37;;;;;;;11.20;2.63;;;25.70;99.90;;;;;;5096653;28;20289;-82
2021/05/16 08:26:04;;;;;;;9.63;2.88;;;24.50;99.90;;;;;;5091871;28;20231;-83
2021/05/16 08:28:30;;;;;;;14.48;3.38;;;22.80;99.90;;;;;;5095433;28;20649;-80
2021/05/16 08:30:57;;;;;;;13.33;3.00;;;21.50;99.90;;;;;;5092970;28;20669;-79
2021/05/16 08:33:24;;;;;;;14.77;3.20;;;20.30;99.90;;;;;;5091189;28;20294;-84
2021/05/16 08:35:50;;;;;;;13.63;3.23;;;19.80;99.90;;;;;;5084634;28;20195;-80
2021/05/16 08:38:20;;;;;;;11.20;3.33;;;19.20;99.90;;;;;;5089963;28;20644;-81
2021/05/16 08:40:47;;;;;;;11.40;2.90;;;18.60;99.90;;;;;;5092465;28;20725;-80
2021/05/16 08:43:13;;;;;;;12.77;2.87;;;18.50;99.90;;;;;;5094769;28;20337;-80
2021/05/16 08:45:41;;;;;;;14.93;3.67;;;18.30;99.90;;;;;;5089155;28;20199;-80
2021/05/16 08:48:09;;;;;;;15.20;3.20;;;18.00;99.90;;;;;;5090929;28;20203;-83
2021/05/16 08:50:37;;;;;;;11.63;3.20;;;18.60;99.90;;;;;;5085138;28;20707;-82
2021/05/16 08:53:03;;;;;;;15.07;3.53;;;18.70;99.90;;;;;;5092974;28;20282;-81
2021/05/16 08:55:31;;;;;;;14.97;3.40;;;18.70;99.90;;;;;;5091663;28;20195;-81
2021/05/16 08:57:57;;;;;;;14.60;3.90;;;18.50;99.90;;;;;;5092315;28;20558;-80
2021/05/16 09:00:26;;;;;;;17.50;3.10;;;19.30;99.90;;;;;;5087711;28;20237;-81
2021/05/16 09:03:08;;;;;;;12.43;3.20;;;20.40;99.90;;;;;;5093960;28;20528;-85
2021/05/16 09:05:38;;;;;;;12.07;3.20;;;20.00;99.90;;;;;;5087917;28;20723;-80
2021/05/16 09:08:12;;;;;;;11.50;2.80;;;19.30;99.90;;;;;;5091440;28;20226;-81
2021/05/16 09:10:39;;;;;;;11.07;2.83;;;18.90;99.90;;;;;;5099191;28;20194;-83
2021/05/16 09:13:10;;;;;;;13.50;2.83;;;18.40;99.90;;;;;;5092290;28;20203;-82
2021/05/16 09:15:37;;;;;;;8.57;2.77;;;19.70;99.90;;;;;;5086893;28;20199;-86
2021/05/16 09:18:04;;;;;;;15.33;3.00;;;21.70;99.90;;;;;;5087282;28;20222;-81
2021/05/16 09:20:32;;;;;;;11.17;3.10;;;23.60;99.90;;;;;;5080255;28;20611;-81
2021/05/16 09:22:59;;;;;;;9.20;2.70;;;25.60;99.90;;;;;;5085114;28;20645;-82
2021/05/16 09:25:29;;;;;;;9.23;2.53;;;26.20;99.90;;;;;;5086997;28;20325;-82
2021/05/16 09:28:09;;;;;;;9.90;2.60;;;25.80;99.90;;;;;;5098527;28;20195;-81
2021/05/16 09:30:38;;;;;;;9.90;2.60;;;25.40;99.90;;;;;;5094404;28;20716;-84
2021/05/16 09:33:06;;;;;;;10.98;2.33;;;24.90;99.90;;;;;;5092420;28;20199;-82
2021/05/16 09:35:39;;;;;;;13.05;2.50;;;24.00;99.90;;;;;;5097239;28;20344;-81
2021/05/16 09:38:08;;;;;;;8.60;2.45;;;24.10;99.90;;;;;;5089262;28;20343;-83
2021/05/16 09:40:40;;;;;;;11.68;2.35;;;23.20;99.90;;;;;;5095496;28;20209;-84
2021/05/16 09:43:25;;;;;;;8.65;2.30;;;22.20;99.90;;;;;;5097588;28;20195;-82
2021/05/16 09:46:01;;;;;;;6.15;2.10;;;22.00;99.90;;;;;;5089921;28;20187;-84
2021/05/16 09:48:39;;;;;;;11.02;2.05;;;23.80;99.90;;;;;;5095355;28;20464;-80
2021/05/16 09:51:18;;;;;;;7.32;2.05;;;23.60;99.90;;;;;;5098385;28;20246;-85
2021/05/16 09:54:06;;;;;;;6.63;2.03;;;23.80;99.90;;;;;;5099872;28;20695;-85
2021/05/16 09:56:35;;;;;;;5.97;1.65;;;24.80;99.90;;;;;;5095427;28;20214;-79
2021/05/16 09:59:05;;;;;;;5.10;1.60;;;25.40;99.90;;;;;;5094766;28;20199;-79
2021/05/16 10:01:32;;;;;;;8.77;1.50;;;25.60;99.90;;;;;;5090868;28;20191;-81
2021/05/16 10:03:59;;;;;;;7.75;1.48;;;24.70;99.90;;;;;;5094108;28;20320;-79
2021/05/16 10:06:28;;;;;;;5.07;1.50;;;23.50;99.90;;;;;;5093577;28;20191;-83
2021/05/16 10:08:55;;;;;;;6.32;1.80;;;22.40;99.90;;;;;;5085888;28;20227;-80
2021/05/16 10:11:24;;;;;;;6.13;1.50;;;21.50;99.90;;;;;;5090605;28;20230;-81
2021/05/16 10:13:57;;;;;;;8.38;1.85;;;21.00;99.90;;;;;;5093375;28;20199;-80
2021/05/16 10:16:24;;;;;;;10.23;2.20;;;20.60;99.90;;;;;;5090820;28;20547;-79
2021/05/16 10:18:52;;;;;;;8.70;2.07;;;20.50;99.90;;;;;;5093279;28;20205;-84
2021/05/16 10:21:22;;;;;;;7.40;2.20;;;20.20;99.90;;;;;;5091199;28;20620;-80
2021/05/16 10:24:08;;;;;;;8.23;1.57;;;20.50;99.90;;;;;;5093693;28;20195;-80
2021/05/16 10:26:34;;;;;;;5.87;1.43;;;21.00;99.90;;;;;;5090594;28;20195;-81
2021/05/16 10:29:03;;;;;;;6.43;1.83;;;21.70;99.90;;;;;;5088553;28;20573;-80
2021/05/16 10:31:51;;;;;;;5.68;1.40;;;22.60;99.90;;;;;;5075642;28;20328;-86
2021/05/16 10:34:44;;;;;;;8.40;2.63;;;23.20;99.90;;;;;;5085019;28;20296;-80
2021/05/16 10:37:45;;;;;;;6.85;2.60;;;22.80;99.90;;;;;;5075844;28;20268;-81
2021/05/16 10:40:42;;;;;;;10.03;2.80;;;21.70;99.90;;;;;;5087108;28;20207;-80
2021/05/16 10:43:26;;;;;;;14.33;2.93;;;19.80;99.90;;;;;;5091890;28;20914;-81
2021/05/16 10:46:42;;;;;;;11.47;3.10;;;18.30;99.90;;;;;;5091717;28;20256;-82
2021/05/16 10:49:35;;;;;;;15.57;3.50;;;17.30;99.90;;;;;;5092253;28;20225;-82
2021/05/16 10:52:27;;;;;;;13.50;3.00;;;17.30;99.90;;;;;;5095602;28;20190;-80
2021/05/16 10:54:53;;;;;;;9.00;2.20;;;18.20;99.90;;;;;;5095940;28;20208;-80
2021/05/16 10:57:24;;;;;;;8.40;2.30;;;20.20;99.90;;;;;;5096613;28;20207;-83
2021/05/16 10:59:51;;;;;;;8.73;2.50;;;22.10;99.90;;;;;;5097037;28;20187;-80
2021/05/16 11:02:50;;;;;;;9.67;2.57;;;22.20;99.90;;;;;;5093708;28;20318;-80
2021/05/16 11:05:54;;;;;;;6.40;2.00;;;21.40;99.90;;;;;;5086228;28;20219;-82
2021/05/16 11:09:07;;;;;;;8.00;2.40;;;21.30;99.90;;;;;;5096870;28;20236;-81
2021/05/16 11:11:36;;;;;;;6.53;1.70;;;22.50;99.90;;;;;;5097786;28;20281;-86
2021/05/16 11:14:14;;;;;;;8.37;2.00;;;22.00;99.90;;;;;;5091106;28;20643;-84
2021/05/16 11:16:53;;;;;;;7.67;1.87;;;22.50;99.90;;;;;;5096556;28;20218;-84
2021/05/16 11:19:25;;;;;;;4.05;1.60;;;23.60;99.90;;;;;;5097298;28;20206;-82
2021/05/16 11:21:52;;;;;;;4.55;1.50;;;23.50;99.90;;;;;;5094632;28;20662;-84
2021/05/16 11:24:34;;;;;;;6.93;1.90;;;23.00;99.90;;;;;;5092145;28;21174;-82
2021/05/16 11:27:01;;;;;;;6.50;1.70;;;22.20;99.90;;;;;;5089569;28;20712;-83
2021/05/16 11:29:28;;;;;;;7.17;1.80;;;22.40;99.90;;;;;;5090927;28;20254;-79
2021/05/16 11:32:03;;;;;;;6.90;1.70;;;22.60;99.90;;;;;;5088357;28;20183;-79
2021/05/16 11:34:30;;;;;;;6.65;2.00;;;22.00;99.90;;;;;;5089269;28;20205;-82
2021/05/16 11:36:56;;;;;;;5.67;1.70;;;22.20;99.90;;;;;;5092449;28;20231;-79
2021/05/16 11:39:23;;;;;;;5.50;1.83;;;21.90;99.90;;;;;;5089923;28;20290;-80
2021/05/16 11:41:49;;;;;;;5.70;1.55;;;21.90;99.90;;;;;;5091450;28;20188;-78
2021/05/16 11:44:25;;;;;;;5.00;1.70;;;22.60;99.90;;;;;;5092081;28;20194;-78
2021/05/16 11:46:52;;;;;;;4.75;1.55;;;22.60;99.90;;;;;;5091121;28;20209;-78
2021/05/16 11:49:25;;;;;;;5.15;1.83;;;22.20;99.90;;;;;;5091875;28;20756;-82
2021/05/16 11:51:56;;;;;;;4.03;1.57;;;21.70;99.90;;;;;;5091994;28;20596;-78
2021/05/16 11:54:26;;;;;;;4.43;1.65;;;22.00;99.90;;;;;;5089535;28;20324;-81
2021/05/16 11:56:53;;;;;;;4.75;1.70;;;22.70;99.90;;;;;;5092027;28;20222;-79
2021/05/16 11:59:19;;;;;;;4.68;1.52;;;23.80;99.90;;;;;;5092092;28;20214;-81
2021/05/16 12:01:46;;;;;;;8.88;2.10;;;25.20;99.90;;;;;;5091588;28;20676;-82
2021/05/16 12:04:16;;;;;;;5.90;1.67;;;26.30;99.90;;;;;;5091471;28;20217;-80
2021/05/16 12:06:44;;;;;;;5.90;1.70;;;26.50;99.90;;;;;;5091261;28;20194;-79
2021/05/16 12:09:14;;;;;;;3.83;1.83;;;25.70;99.90;;;;;;5089059;28;20256;-82
2021/05/16 12:11:42;;;;;;;3.65;1.48;;;25.20;99.90;;;;;;5091510;28;20192;-79
2021/05/16 12:14:11;;;;;;;4.50;2.10;;;25.10;99.90;;;;;;5091566;28;20356;-79
2021/05/16 12:16:38;;;;;;;2.75;1.52;;;24.10;99.90;;;;;;5091898;28;20592;-80
2021/05/16 12:19:05;;;;;;;2.65;1.42;;;24.50;99.90;;;;;;5088563;28;20313;-78
2021/05/16 12:21:35;;;;;;;5.65;1.38;;;24.30;99.90;;;;;;5090806;28;20668;-80
2021/05/16 12:24:04;;;;;;;5.15;1.20;;;24.30;99.90;;;;;;5092550;28;20198;-78
2021/05/16 12:26:33;;;;;;;2.80;1.15;;;24.80;99.90;;;;;;5088922;28;20222;-79
2021/05/16 12:29:01;;;;;;;3.15;1.30;;;24.90;99.90;;;;;;5091738;28;20192;-78
2021/05/16 12:31:29;;;;;;;4.15;1.40;;;24.90;99.90;;;;;;5091175;28;20200;-83
2021/05/16 12:34:01;;;;;;;2.95;1.38;;;25.00;99.90;;;;;;5093531;28;20214;-82
2021/05/16 12:36:28;;;;;;;3.25;1.40;;;25.30;99.90;;;;;;5094627;28;20191;-79
2021/05/16 12:38:56;;;;;;;2.67;1.60;;;25.00;99.90;;;;;;5079774;28;20874;-80
2021/05/16 12:41:25;;;;;;;2.95;1.60;;;24.80;99.90;;;;;;5091740;28;20198;-78
2021/05/16 12:44:13;;;;;;;2.75;1.52;;;23.70;99.90;;;;;;5092144;28;20281;-79
2021/05/16 12:46:44;;;;;;;2.45;1.30;;;22.70;99.90;;;;;;5091809;28;20286;-79
2021/05/16 12:49:13;;;;;;;2.60;1.50;;;21.80;99.90;;;;;;5084540;28;20271;-78
2021/05/16 12:51:40;;;;;;;3.30;0.50;;;20.80;99.90;;;;;;5090820;28;20593;-81